Terminal Aerodrome Forecast
Issued by NWS Pittsburgh, PA

Current Version | Previous Version | Graphics & Text | Print | Product List | Glossary On
Versions: 1 2 3 4 5 6 7 8 9 10 11 12 13 14 15 16 17 18 19 20 21 22 23 24 25 26 27
288
FTUS41 KPBZ 052320
TAFPIT
TAF
KPIT 052320Z 0600/0706 VRB03KT P6SM BKN200
     FM061500 11012G18KT P6SM -RA OVC050
     FM061800 13012G18KT 4SM -RA OVC015
     FM070000 12005KT P6SM OVC008=

USA.gov is the U.S. government's official web portal to all federal, state and local government web resources and services.